ZBAA/PEK METAR and TAF weather

Enter ICAO airport designator
Station Type Date Time Source
ZBAA METAR 2020/01/27 13:30 UTC NOAA

ZBAA 271330Z 00000MPS 8000 NSC M02/M08 Q1024 NOSIG


Station Type Date Time Source
ZBAA Decoded METAR 2020/01/27 13:30 UTC NOAA

Beijing, China (ZBAA) 39-56N 116-17E 55M
Jan 27, 2020 - 08:30 AM EST / 2020.01.27 1330 UTC
Wind: Calm:0
Visibility: 4 mile(s):0
Temperature: 28 F (-2 C)
Dew Point: 17 F (-8 C)
Relative Humidity: 63%
Pressure (altimeter): 30.24 in. Hg (1024 hPa)
ob: ZBAA 271330Z 00000MPS 8000 NSC M02/M08 Q1024 NOSIG
cycle: 13

Station Type Date Time Source
ZBAA TAF 2020/01/27 12:03 UTC NOAA

TAF TAF ZBAA 270904Z 2712/2812 03004MPS 3500 BR NSC TX06/2807Z TNM05/2721Z

Example: see airport list